sensor_id;sensor_type;location;lat;lon;timestamp;P1;durP1;ratioP1;P2;durP2;ratioP2
9080;SDS011;13509;50.760;6.080;2022-09-03T00:01:18;3.00;;;1.10;;
9080;SDS011;13509;50.760;6.080;2022-09-03T00:03:50;1.43;;;1.30;;
9080;SDS011;13509;50.760;6.080;2022-09-03T00:06:22;1.83;;;1.10;;
9080;SDS011;13509;50.760;6.080;2022-09-03T00:08:52;1.97;;;1.40;;
9080;SDS011;13509;50.760;6.080;2022-09-03T00:11:25;2.47;;;1.27;;
9080;SDS011;13509;50.760;6.080;2022-09-03T00:13:56;2.43;;;1.17;;
9080;SDS011;13509;50.760;6.080;2022-09-03T00:16:29;2.37;;;1.20;;
9080;SDS011;13509;50.760;6.080;2022-09-03T00:19:01;1.60;;;1.20;;
9080;SDS011;13509;50.760;6.080;2022-09-03T00:21:33;1.50;;;1.17;;
9080;SDS011;13509;50.760;6.080;2022-09-03T00:24:04;1.30;;;1.20;;
9080;SDS011;13509;50.760;6.080;2022-09-03T00:26:41;1.50;;;1.20;;
9080;SDS011;13509;50.760;6.080;2022-09-03T00:29:12;1.73;;;1.00;;
9080;SDS011;13509;50.760;6.080;2022-09-03T00:31:43;1.27;;;1.10;;
9080;SDS011;13509;50.760;6.080;2022-09-03T00:34:14;2.30;;;1.10;;
9080;SDS011;13509;50.760;6.080;2022-09-03T00:36:45;1.20;;;1.10;;
9080;SDS011;13509;50.760;6.080;2022-09-03T00:39:14;5.40;;;1.00;;
9080;SDS011;13509;50.760;6.080;2022-09-03T00:41:45;3.27;;;1.40;;
9080;SDS011;13509;50.760;6.080;2022-09-03T00:44:23;1.50;;;1.30;;
9080;SDS011;13509;50.760;6.080;2022-09-03T00:46:55;2.10;;;1.10;;
9080;SDS011;13509;50.760;6.080;2022-09-03T00:49:32;2.00;;;1.33;;
9080;SDS011;13509;50.760;6.080;2022-09-03T00:52:07;1.43;;;1.10;;
9080;SDS011;13509;50.760;6.080;2022-09-03T00:54:40;4.53;;;1.60;;
9080;SDS011;13509;50.760;6.080;2022-09-03T00:57:14;3.87;;;1.40;;
9080;SDS011;13509;50.760;6.080;2022-09-03T00:59:44;2.00;;;1.63;;
9080;SDS011;13509;50.760;6.080;2022-09-03T01:02:16;3.83;;;1.90;;
9080;SDS011;13509;50.760;6.080;2022-09-03T01:04:50;3.87;;;1.40;;
9080;SDS011;13509;50.760;6.080;2022-09-03T01:07:26;4.63;;;1.50;;
9080;SDS011;13509;50.760;6.080;2022-09-03T01:10:00;3.33;;;1.80;;
9080;SDS011;13509;50.760;6.080;2022-09-03T01:12:34;2.10;;;1.77;;
9080;SDS011;13509;50.760;6.080;2022-09-03T01:15:07;4.47;;;1.50;;
9080;SDS011;13509;50.760;6.080;2022-09-03T01:17:41;3.03;;;1.60;;
9080;SDS011;13509;50.760;6.080;2022-09-03T01:20:16;2.73;;;1.40;;
9080;SDS011;13509;50.760;6.080;2022-09-03T01:23:02;2.63;;;1.30;;
9080;SDS011;13509;50.760;6.080;2022-09-03T01:25:37;2.37;;;1.33;;
9080;SDS011;13509;50.760;6.080;2022-09-03T01:28:15;1.50;;;1.40;;
9080;SDS011;13509;50.760;6.080;2022-09-03T01:30:47;2.10;;;1.40;;
9080;SDS011;13509;50.760;6.080;2022-09-03T01:33:18;4.73;;;1.20;;
9080;SDS011;13509;50.760;6.080;2022-09-03T01:35:50;1.63;;;1.27;;
9080;SDS011;13509;50.760;6.080;2022-09-03T01:38:21;2.00;;;1.30;;
9080;SDS011;13509;50.760;6.080;2022-09-03T01:40:57;2.27;;;1.40;;
9080;SDS011;13509;50.760;6.080;2022-09-03T01:43:51;1.57;;;1.40;;
9080;SDS011;13509;50.760;6.080;2022-09-03T01:46:22;2.73;;;1.50;;
9080;SDS011;13509;50.760;6.080;2022-09-03T01:48:52;3.10;;;1.40;;
9080;SDS011;13509;50.760;6.080;2022-09-03T01:51:24;1.70;;;1.50;;
9080;SDS011;13509;50.760;6.080;2022-09-03T01:53:59;2.43;;;1.30;;
9080;SDS011;13509;50.760;6.080;2022-09-03T01:56:47;1.70;;;1.60;;
9080;SDS011;13509;50.760;6.080;2022-09-03T01:59:25;1.77;;;1.40;;
9080;SDS011;13509;50.760;6.080;2022-09-03T02:01:57;1.87;;;1.07;;
9080;SDS011;13509;50.760;6.080;2022-09-03T02:04:26;4.30;;;1.20;;
9080;SDS011;13509;50.760;6.080;2022-09-03T02:06:57;1.50;;;1.40;;
9080;SDS011;13509;50.760;6.080;2022-09-03T02:09:26;1.53;;;1.17;;
9080;SDS011;13509;50.760;6.080;2022-09-03T02:11:59;1.73;;;1.20;;
9080;SDS011;13509;50.760;6.080;2022-09-03T02:14:30;4.43;;;1.67;;
9080;SDS011;13509;50.760;6.080;2022-09-03T02:16:58;2.37;;;1.67;;
9080;SDS011;13509;50.760;6.080;2022-09-03T02:19:27;2.43;;;1.50;;
9080;SDS011;13509;50.760;6.080;2022-09-03T02:21:57;2.27;;;1.83;;
9080;SDS011;13509;50.760;6.080;2022-09-03T02:24:25;1.60;;;1.50;;
9080;SDS011;13509;50.760;6.080;2022-09-03T02:26:55;5.17;;;2.10;;
9080;SDS011;13509;50.760;6.080;2022-09-03T02:29:23;2.33;;;2.03;;
9080;SDS011;13509;50.760;6.080;2022-09-03T02:31:54;2.57;;;2.00;;
9080;SDS011;13509;50.760;6.080;2022-09-03T02:34:22;2.97;;;2.13;;
9080;SDS011;13509;50.760;6.080;2022-09-03T02:36:51;2.70;;;1.80;;
9080;SDS011;13509;50.760;6.080;2022-09-03T02:39:19;2.80;;;1.70;;
9080;SDS011;13509;50.760;6.080;2022-09-03T02:41:49;2.03;;;1.47;;
9080;SDS011;13509;50.760;6.080;2022-09-03T02:44:19;2.93;;;1.70;;
9080;SDS011;13509;50.760;6.080;2022-09-03T02:46:52;6.27;;;1.80;;
9080;SDS011;13509;50.760;6.080;2022-09-03T02:49:22;3.00;;;2.00;;
9080;SDS011;13509;50.760;6.080;2022-09-03T02:51:50;2.70;;;1.90;;
9080;SDS011;13509;50.760;6.080;2022-09-03T02:54:18;2.83;;;1.90;;
9080;SDS011;13509;50.760;6.080;2022-09-03T02:56:47;2.53;;;1.80;;
9080;SDS011;13509;50.760;6.080;2022-09-03T02:59:15;3.87;;;1.83;;
9080;SDS011;13509;50.760;6.080;2022-09-03T03:01:44;2.93;;;2.20;;
9080;SDS011;13509;50.760;6.080;2022-09-03T03:04:12;3.97;;;1.90;;
9080;SDS011;13509;50.760;6.080;2022-09-03T03:06:42;2.50;;;1.90;;
9080;SDS011;13509;50.760;6.080;2022-09-03T03:09:13;2.90;;;2.13;;
9080;SDS011;13509;50.760;6.080;2022-09-03T03:11:41;2.43;;;1.97;;
9080;SDS011;13509;50.760;6.080;2022-09-03T03:14:10;2.73;;;2.00;;
9080;SDS011;13509;50.760;6.080;2022-09-03T03:16:38;2.73;;;2.00;;
9080;SDS011;13509;50.760;6.080;2022-09-03T03:19:06;4.13;;;2.30;;
9080;SDS011;13509;50.760;6.080;2022-09-03T03:21:35;3.33;;;1.97;;
9080;SDS011;13509;50.760;6.080;2022-09-03T03:24:04;2.77;;;1.80;;
9080;SDS011;13509;50.760;6.080;2022-09-03T03:26:33;3.20;;;2.00;;
9080;SDS011;13509;50.760;6.080;2022-09-03T03:29:02;2.47;;;2.00;;
9080;SDS011;13509;50.760;6.080;2022-09-03T03:31:30;2.83;;;1.97;;
9080;SDS011;13509;50.760;6.080;2022-09-03T03:33:59;1.77;;;1.53;;
9080;SDS011;13509;50.760;6.080;2022-09-03T03:36:28;2.03;;;1.80;;
9080;SDS011;13509;50.760;6.080;2022-09-03T03:38:57;3.47;;;1.80;;
9080;SDS011;13509;50.760;6.080;2022-09-03T03:41:28;3.13;;;2.17;;
9080;SDS011;13509;50.760;6.080;2022-09-03T03:43:58;2.70;;;2.03;;
9080;SDS011;13509;50.760;6.080;2022-09-03T03:46:28;2.00;;;1.80;;
9080;SDS011;13509;50.760;6.080;2022-09-03T03:48:56;3.43;;;1.73;;
9080;SDS011;13509;50.760;6.080;2022-09-03T03:51:24;3.27;;;1.90;;
9080;SDS011;13509;50.760;6.080;2022-09-03T03:53:53;3.17;;;1.90;;
9080;SDS011;13509;50.760;6.080;2022-09-03T03:56:28;4.13;;;2.00;;
9080;SDS011;13509;50.760;6.080;2022-09-03T03:58:57;3.53;;;1.83;;
9080;SDS011;13509;50.760;6.080;2022-09-03T04:01:26;3.93;;;1.93;;
9080;SDS011;13509;50.760;6.080;2022-09-03T04:03:55;3.93;;;1.70;;
9080;SDS011;13509;50.760;6.080;2022-09-03T04:06:23;2.90;;;2.00;;
9080;SDS011;13509;50.760;6.080;2022-09-03T04:08:52;2.27;;;1.40;;
9080;SDS011;13509;50.760;6.080;2022-09-03T04:11:21;4.00;;;1.70;;
9080;SDS011;13509;50.760;6.080;2022-09-03T04:13:51;4.77;;;1.73;;
9080;SDS011;13509;50.760;6.080;2022-09-03T04:16:21;2.60;;;1.70;;
9080;SDS011;13509;50.760;6.080;2022-09-03T04:18:49;3.50;;;1.90;;
9080;SDS011;13509;50.760;6.080;2022-09-03T04:21:18;5.30;;;1.90;;
9080;SDS011;13509;50.760;6.080;2022-09-03T04:23:47;2.27;;;1.70;;
9080;SDS011;13509;50.760;6.080;2022-09-03T04:26:16;2.50;;;1.63;;
9080;SDS011;13509;50.760;6.080;2022-09-03T04:28:45;4.00;;;2.27;;
9080;SDS011;13509;50.760;6.080;2022-09-03T04:31:15;2.97;;;1.77;;
9080;SDS011;13509;50.760;6.080;2022-09-03T04:33:44;5.10;;;2.00;;
9080;SDS011;13509;50.760;6.080;2022-09-03T04:36:13;2.33;;;1.90;;
9080;SDS011;13509;50.760;6.080;2022-09-03T04:38:42;2.67;;;1.60;;
9080;SDS011;13509;50.760;6.080;2022-09-03T04:41:11;2.67;;;1.90;;
9080;SDS011;13509;50.760;6.080;2022-09-03T04:43:40;2.13;;;1.70;;
9080;SDS011;13509;50.760;6.080;2022-09-03T04:46:09;3.03;;;1.77;;
9080;SDS011;13509;50.760;6.080;2022-09-03T04:48:46;2.33;;;1.70;;
9080;SDS011;13509;50.760;6.080;2022-09-03T04:51:15;2.10;;;1.60;;
9080;SDS011;13509;50.760;6.080;2022-09-03T04:53:44;3.10;;;1.70;;
9080;SDS011;13509;50.760;6.080;2022-09-03T04:56:13;3.13;;;1.80;;
9080;SDS011;13509;50.760;6.080;2022-09-03T04:58:41;3.07;;;1.70;;
9080;SDS011;13509;50.760;6.080;2022-09-03T05:01:14;2.20;;;1.73;;
9080;SDS011;13509;50.760;6.080;2022-09-03T05:03:44;2.40;;;2.03;;
9080;SDS011;13509;50.760;6.080;2022-09-03T05:06:13;2.97;;;1.80;;
9080;SDS011;13509;50.760;6.080;2022-09-03T05:08:42;2.00;;;1.80;;
9080;SDS011;13509;50.760;6.080;2022-09-03T05:11:13;5.80;;;1.70;;
9080;SDS011;13509;50.760;6.080;2022-09-03T05:13:41;4.67;;;1.73;;
9080;SDS011;13509;50.760;6.080;2022-09-03T05:16:10;2.13;;;1.43;;
9080;SDS011;13509;50.760;6.080;2022-09-03T05:18:39;2.07;;;1.70;;
9080;SDS011;13509;50.760;6.080;2022-09-03T05:21:09;3.90;;;1.60;;
9080;SDS011;13509;50.760;6.080;2022-09-03T05:23:38;2.37;;;1.70;;
9080;SDS011;13509;50.760;6.080;2022-09-03T05:26:08;2.30;;;1.90;;
9080;SDS011;13509;50.760;6.080;2022-09-03T05:28:37;5.67;;;1.67;;
9080;SDS011;13509;50.760;6.080;2022-09-03T05:31:07;2.50;;;1.67;;
9080;SDS011;13509;50.760;6.080;2022-09-03T05:33:36;3.47;;;1.63;;
9080;SDS011;13509;50.760;6.080;2022-09-03T05:36:05;3.67;;;1.70;;
9080;SDS011;13509;50.760;6.080;2022-09-03T05:38:35;2.10;;;1.57;;
9080;SDS011;13509;50.760;6.080;2022-09-03T05:41:04;1.83;;;1.60;;
9080;SDS011;13509;50.760;6.080;2022-09-03T05:43:33;3.47;;;1.70;;
9080;SDS011;13509;50.760;6.080;2022-09-03T05:46:02;2.60;;;1.63;;
9080;SDS011;13509;50.760;6.080;2022-09-03T05:48:30;5.13;;;1.50;;
9080;SDS011;13509;50.760;6.080;2022-09-03T05:50:59;2.40;;;1.60;;
9080;SDS011;13509;50.760;6.080;2022-09-03T05:53:28;3.47;;;1.90;;
9080;SDS011;13509;50.760;6.080;2022-09-03T05:55:58;3.27;;;1.50;;
9080;SDS011;13509;50.760;6.080;2022-09-03T05:58:29;3.90;;;1.50;;
9080;SDS011;13509;50.760;6.080;2022-09-03T06:00:57;1.93;;;1.40;;
9080;SDS011;13509;50.760;6.080;2022-09-03T06:03:25;2.53;;;1.47;;
9080;SDS011;13509;50.760;6.080;2022-09-03T06:05:54;3.20;;;1.50;;
9080;SDS011;13509;50.760;6.080;2022-09-03T06:08:22;1.70;;;1.60;;
9080;SDS011;13509;50.760;6.080;2022-09-03T06:10:57;5.13;;;1.70;;
9080;SDS011;13509;50.760;6.080;2022-09-03T06:13:26;4.37;;;1.90;;
9080;SDS011;13509;50.760;6.080;2022-09-03T06:15:55;2.00;;;1.30;;
9080;SDS011;13509;50.760;6.080;2022-09-03T06:18:23;3.20;;;1.60;;
9080;SDS011;13509;50.760;6.080;2022-09-03T06:20:55;2.83;;;1.70;;
9080;SDS011;13509;50.760;6.080;2022-09-03T06:23:23;2.93;;;1.30;;
9080;SDS011;13509;50.760;6.080;2022-09-03T06:26:00;5.70;;;1.70;;
9080;SDS011;13509;50.760;6.080;2022-09-03T06:28:30;3.53;;;1.83;;
9080;SDS011;13509;50.760;6.080;2022-09-03T06:31:00;2.33;;;1.80;;
9080;SDS011;13509;50.760;6.080;2022-09-03T06:33:28;1.40;;;1.30;;
9080;SDS011;13509;50.760;6.080;2022-09-03T06:35:57;2.23;;;1.60;;
9080;SDS011;13509;50.760;6.080;2022-09-03T06:38:27;2.50;;;1.67;;
9080;SDS011;13509;50.760;6.080;2022-09-03T06:40:57;2.17;;;1.50;;
9080;SDS011;13509;50.760;6.080;2022-09-03T06:43:29;2.27;;;1.57;;
9080;SDS011;13509;50.760;6.080;2022-09-03T06:45:58;3.47;;;1.40;;
9080;SDS011;13509;50.760;6.080;2022-09-03T06:48:28;2.10;;;1.70;;
9080;SDS011;13509;50.760;6.080;2022-09-03T06:50:57;1.63;;;1.50;;
9080;SDS011;13509;50.760;6.080;2022-09-03T06:53:27;3.63;;;1.47;;
9080;SDS011;13509;50.760;6.080;2022-09-03T06:55:58;4.13;;;1.60;;
9080;SDS011;13509;50.760;6.080;2022-09-03T06:58:28;2.23;;;1.73;;
9080;SDS011;13509;50.760;6.080;2022-09-03T07:01:01;4.60;;;1.63;;
9080;SDS011;13509;50.760;6.080;2022-09-03T07:03:29;2.20;;;1.63;;
9080;SDS011;13509;50.760;6.080;2022-09-03T07:06:00;4.60;;;1.50;;
9080;SDS011;13509;50.760;6.080;2022-09-03T07:08:30;4.73;;;1.67;;
9080;SDS011;13509;50.760;6.080;2022-09-03T07:10:59;5.00;;;1.90;;
9080;SDS011;13509;50.760;6.080;2022-09-03T07:13:32;3.97;;;1.60;;
9080;SDS011;13509;50.760;6.080;2022-09-03T07:16:01;3.33;;;1.70;;
9080;SDS011;13509;50.760;6.080;2022-09-03T07:18:30;7.23;;;1.80;;
9080;SDS011;13509;50.760;6.080;2022-09-03T07:20:58;3.63;;;1.70;;
9080;SDS011;13509;50.760;6.080;2022-09-03T07:23:27;2.93;;;1.70;;
9080;SDS011;13509;50.760;6.080;2022-09-03T07:25:55;2.30;;;1.40;;
9080;SDS011;13509;50.760;6.080;2022-09-03T07:28:24;4.17;;;1.40;;
9080;SDS011;13509;50.760;6.080;2022-09-03T07:30:54;1.93;;;1.57;;
9080;SDS011;13509;50.760;6.080;2022-09-03T07:33:27;4.70;;;1.53;;
9080;SDS011;13509;50.760;6.080;2022-09-03T07:36:02;1.80;;;1.50;;
9080;SDS011;13509;50.760;6.080;2022-09-03T07:38:31;2.17;;;1.83;;
9080;SDS011;13509;50.760;6.080;2022-09-03T07:41:00;2.63;;;2.00;;
9080;SDS011;13509;50.760;6.080;2022-09-03T07:43:29;2.20;;;1.60;;
9080;SDS011;13509;50.760;6.080;2022-09-03T07:46:01;2.80;;;1.90;;
9080;SDS011;13509;50.760;6.080;2022-09-03T07:48:30;6.53;;;2.03;;
9080;SDS011;13509;50.760;6.080;2022-09-03T07:51:02;3.50;;;1.80;;
9080;SDS011;13509;50.760;6.080;2022-09-03T07:53:31;4.23;;;1.93;;
9080;SDS011;13509;50.760;6.080;2022-09-03T07:56:03;6.33;;;1.70;;
9080;SDS011;13509;50.760;6.080;2022-09-03T07:58:32;2.00;;;1.60;;
9080;SDS011;13509;50.760;6.080;2022-09-03T08:01:04;2.65;;;1.70;;
9080;SDS011;13509;50.760;6.080;2022-09-03T08:03:36;2.63;;;1.52;;
9080;SDS011;13509;50.760;6.080;2022-09-03T08:06:06;1.90;;;1.48;;
9080;SDS011;13509;50.760;6.080;2022-09-03T08:08:35;2.22;;;1.35;;
9080;SDS011;13509;50.760;6.080;2022-09-03T08:11:04;3.22;;;1.88;;
9080;SDS011;13509;50.760;6.080;2022-09-03T08:13:36;2.22;;;1.83;;
9080;SDS011;13509;50.760;6.080;2022-09-03T08:16:07;1.42;;;1.30;;
9080;SDS011;13509;50.760;6.080;2022-09-03T08:18:36;1.60;;;1.50;;
9080;SDS011;13509;50.760;6.080;2022-09-03T08:21:04;3.10;;;1.80;;
9080;SDS011;13509;50.760;6.080;2022-09-03T08:23:35;2.90;;;1.80;;
9080;SDS011;13509;50.760;6.080;2022-09-03T08:26:03;2.70;;;1.57;;
9080;SDS011;13509;50.760;6.080;2022-09-03T08:28:32;1.47;;;1.30;;
9080;SDS011;13509;50.760;6.080;2022-09-03T08:31:03;2.20;;;1.60;;
9080;SDS011;13509;50.760;6.080;2022-09-03T08:33:33;1.93;;;1.70;;
9080;SDS011;13509;50.760;6.080;2022-09-03T08:36:08;1.80;;;1.70;;
9080;SDS011;13509;50.760;6.080;2022-09-03T08:38:37;1.77;;;1.67;;
9080;SDS011;13509;50.760;6.080;2022-09-03T08:41:09;2.87;;;1.40;;
9080;SDS011;13509;50.760;6.080;2022-09-03T08:43:46;1.87;;;1.70;;
9080;SDS011;13509;50.760;6.080;2022-09-03T08:46:18;3.73;;;1.90;;
9080;SDS011;13509;50.760;6.080;2022-09-03T08:48:48;2.27;;;1.80;;
9080;SDS011;13509;50.760;6.080;2022-09-03T08:51:17;3.00;;;2.20;;
9080;SDS011;13509;50.760;6.080;2022-09-03T08:53:50;3.23;;;2.40;;
9080;SDS011;13509;50.760;6.080;2022-09-03T08:56:21;2.90;;;1.97;;
9080;SDS011;13509;50.760;6.080;2022-09-03T08:58:51;2.23;;;1.90;;
9080;SDS011;13509;50.760;6.080;2022-09-03T09:01:22;5.33;;;2.33;;
9080;SDS011;13509;50.760;6.080;2022-09-03T09:03:55;3.37;;;2.23;;
9080;SDS011;13509;50.760;6.080;2022-09-03T09:06:32;2.10;;;2.00;;
9080;SDS011;13509;50.760;6.080;2022-09-03T09:09:04;3.30;;;2.20;;
9080;SDS011;13509;50.760;6.080;2022-09-03T09:11:40;2.93;;;1.93;;
9080;SDS011;13509;50.760;6.080;2022-09-03T09:14:14;3.07;;;2.10;;
9080;SDS011;13509;50.760;6.080;2022-09-03T09:16:46;2.97;;;2.17;;
9080;SDS011;13509;50.760;6.080;2022-09-03T09:19:24;4.33;;;2.30;;
9080;SDS011;13509;50.760;6.080;2022-09-03T09:21:56;5.17;;;2.43;;
9080;SDS011;13509;50.760;6.080;2022-09-03T09:24:27;2.50;;;2.17;;
9080;SDS011;13509;50.760;6.080;2022-09-03T09:27:02;2.17;;;1.97;;
9080;SDS011;13509;50.760;6.080;2022-09-03T09:29:32;2.67;;;2.00;;
9080;SDS011;13509;50.760;6.080;2022-09-03T09:32:01;2.43;;;1.93;;
9080;SDS011;13509;50.760;6.080;2022-09-03T09:34:34;2.23;;;2.00;;
9080;SDS011;13509;50.760;6.080;2022-09-03T09:37:03;3.63;;;1.90;;
9080;SDS011;13509;50.760;6.080;2022-09-03T09:39:31;2.13;;;2.03;;
9080;SDS011;13509;50.760;6.080;2022-09-03T09:42:00;5.73;;;2.20;;
9080;SDS011;13509;50.760;6.080;2022-09-03T09:44:33;3.97;;;2.00;;
9080;SDS011;13509;50.760;6.080;2022-09-03T09:47:03;3.10;;;2.43;;
9080;SDS011;13509;50.760;6.080;2022-09-03T09:49:32;3.20;;;1.93;;
9080;SDS011;13509;50.760;6.080;2022-09-03T09:52:03;6.43;;;2.07;;
9080;SDS011;13509;50.760;6.080;2022-09-03T09:54:33;3.67;;;1.90;;
9080;SDS011;13509;50.760;6.080;2022-09-03T09:57:01;4.17;;;2.17;;
9080;SDS011;13509;50.760;6.080;2022-09-03T09:59:31;3.03;;;1.80;;
9080;SDS011;13509;50.760;6.080;2022-09-03T10:02:06;5.83;;;2.27;;
9080;SDS011;13509;50.760;6.080;2022-09-03T10:04:38;2.37;;;2.03;;
9080;SDS011;13509;50.760;6.080;2022-09-03T10:07:17;2.23;;;2.03;;
9080;SDS011;13509;50.760;6.080;2022-09-03T10:09:58;2.20;;;2.00;;
9080;SDS011;13509;50.760;6.080;2022-09-03T10:12:29;2.80;;;1.93;;
9080;SDS011;13509;50.760;6.080;2022-09-03T10:15:02;3.60;;;2.03;;
9080;SDS011;13509;50.760;6.080;2022-09-03T10:17:34;2.73;;;2.10;;
9080;SDS011;13509;50.760;6.080;2022-09-03T10:20:08;2.53;;;2.10;;
9080;SDS011;13509;50.760;6.080;2022-09-03T10:22:58;2.93;;;1.87;;
9080;SDS011;13509;50.760;6.080;2022-09-03T10:25:29;2.00;;;1.80;;
9080;SDS011;13509;50.760;6.080;2022-09-03T10:28:04;1.90;;;1.77;;
9080;SDS011;13509;50.760;6.080;2022-09-03T10:30:43;3.83;;;2.17;;
9080;SDS011;13509;50.760;6.080;2022-09-03T10:33:15;3.93;;;2.93;;
9080;SDS011;13509;50.760;6.080;2022-09-03T10:35:48;3.00;;;2.70;;
9080;SDS011;13509;50.760;6.080;2022-09-03T10:38:22;3.20;;;2.10;;
9080;SDS011;13509;50.760;6.080;2022-09-03T10:40:57;3.27;;;2.20;;
9080;SDS011;13509;50.760;6.080;2022-09-03T10:43:38;3.03;;;1.87;;
9080;SDS011;13509;50.760;6.080;2022-09-03T10:46:09;4.63;;;2.17;;
9080;SDS011;13509;50.760;6.080;2022-09-03T10:48:54;3.93;;;2.40;;
9080;SDS011;13509;50.760;6.080;2022-09-03T10:51:30;2.47;;;2.20;;
9080;SDS011;13509;50.760;6.080;2022-09-03T10:54:09;4.43;;;2.10;;
9080;SDS011;13509;50.760;6.080;2022-09-03T10:56:45;4.07;;;2.33;;
9080;SDS011;13509;50.760;6.080;2022-09-03T10:59:23;6.90;;;2.70;;
9080;SDS011;13509;50.760;6.080;2022-09-03T11:01:58;3.40;;;2.40;;
9080;SDS011;13509;50.760;6.080;2022-09-03T11:04:32;4.20;;;2.27;;
9080;SDS011;13509;50.760;6.080;2022-09-03T11:07:06;7.27;;;2.70;;
9080;SDS011;13509;50.760;6.080;2022-09-03T11:09:37;2.43;;;2.23;;
9080;SDS011;13509;50.760;6.080;2022-09-03T11:12:08;3.00;;;2.23;;
9080;SDS011;13509;50.760;6.080;2022-09-03T11:14:39;2.50;;;2.27;;
9080;SDS011;13509;50.760;6.080;2022-09-03T11:17:10;2.30;;;2.10;;
9080;SDS011;13509;50.760;6.080;2022-09-03T11:19:41;2.67;;;2.40;;
9080;SDS011;13509;50.760;6.080;2022-09-03T11:22:13;2.30;;;2.00;;
9080;SDS011;13509;50.760;6.080;2022-09-03T11:24:48;3.03;;;2.00;;
9080;SDS011;13509;50.760;6.080;2022-09-03T11:27:19;2.67;;;2.00;;
9080;SDS011;13509;50.760;6.080;2022-09-03T11:29:52;2.40;;;2.20;;
9080;SDS011;13509;50.760;6.080;2022-09-03T11:32:23;3.87;;;2.50;;
9080;SDS011;13509;50.760;6.080;2022-09-03T11:34:52;2.53;;;2.20;;
9080;SDS011;13509;50.760;6.080;2022-09-03T11:37:22;6.40;;;2.50;;
9080;SDS011;13509;50.760;6.080;2022-09-03T11:40:02;2.80;;;2.23;;
9080;SDS011;13509;50.760;6.080;2022-09-03T11:42:34;2.53;;;2.33;;
9080;SDS011;13509;50.760;6.080;2022-09-03T11:45:13;5.07;;;2.57;;
9080;SDS011;13509;50.760;6.080;2022-09-03T11:47:42;7.80;;;2.40;;
9080;SDS011;13509;50.760;6.080;2022-09-03T11:50:16;2.83;;;2.20;;
9080;SDS011;13509;50.760;6.080;2022-09-03T11:52:46;7.23;;;2.50;;
9080;SDS011;13509;50.760;6.080;2022-09-03T11:55:25;3.47;;;2.37;;
9080;SDS011;13509;50.760;6.080;2022-09-03T11:58:09;2.13;;;2.03;;
9080;SDS011;13509;50.760;6.080;2022-09-03T12:00:38;2.50;;;2.30;;
9080;SDS011;13509;50.760;6.080;2022-09-03T12:03:11;3.50;;;2.40;;
9080;SDS011;13509;50.760;6.080;2022-09-03T12:05:41;2.77;;;2.23;;
9080;SDS011;13509;50.760;6.080;2022-09-03T12:11:01;2.20;;;1.97;;
9080;SDS011;13509;50.760;6.080;2022-09-03T12:13:44;2.70;;;2.50;;
9080;SDS011;13509;50.760;6.080;2022-09-03T12:16:28;2.97;;;2.67;;
9080;SDS011;13509;50.760;6.080;2022-09-03T12:19:00;2.43;;;2.20;;
9080;SDS011;13509;50.760;6.080;2022-09-03T12:21:36;3.07;;;2.53;;
9080;SDS011;13509;50.760;6.080;2022-09-03T12:24:04;3.30;;;2.30;;
9080;SDS011;13509;50.760;6.080;2022-09-03T12:26:38;5.13;;;2.80;;
9080;SDS011;13509;50.760;6.080;2022-09-03T12:29:18;4.27;;;2.40;;
9080;SDS011;13509;50.760;6.080;2022-09-03T12:31:53;2.50;;;2.30;;
9080;SDS011;13509;50.760;6.080;2022-09-03T12:34:22;3.03;;;2.73;;
9080;SDS011;13509;50.760;6.080;2022-09-03T12:36:51;5.60;;;2.50;;
9080;SDS011;13509;50.760;6.080;2022-09-03T12:39:20;4.07;;;2.60;;
9080;SDS011;13509;50.760;6.080;2022-09-03T12:42:22;2.53;;;2.33;;
9080;SDS011;13509;50.760;6.080;2022-09-03T12:44:51;4.60;;;2.30;;
9080;SDS011;13509;50.760;6.080;2022-09-03T12:47:20;2.30;;;2.10;;
9080;SDS011;13509;50.760;6.080;2022-09-03T12:50:05;2.60;;;2.40;;
9080;SDS011;13509;50.760;6.080;2022-09-03T12:52:34;2.80;;;2.60;;
9080;SDS011;13509;50.760;6.080;2022-09-03T12:55:04;6.23;;;2.50;;
9080;SDS011;13509;50.760;6.080;2022-09-03T12:57:37;3.30;;;2.67;;
9080;SDS011;13509;50.760;6.080;2022-09-03T13:00:07;3.17;;;2.07;;
9080;SDS011;13509;50.760;6.080;2022-09-03T13:02:37;2.60;;;2.40;;
9080;SDS011;13509;50.760;6.080;2022-09-03T13:05:08;3.17;;;2.10;;
9080;SDS011;13509;50.760;6.080;2022-09-03T13:07:37;2.60;;;2.17;;
9080;SDS011;13509;50.760;6.080;2022-09-03T13:10:15;2.40;;;2.20;;
9080;SDS011;13509;50.760;6.080;2022-09-03T13:12:48;2.43;;;2.10;;
9080;SDS011;13509;50.760;6.080;2022-09-03T13:15:20;3.63;;;2.57;;
9080;SDS011;13509;50.760;6.080;2022-09-03T13:17:56;3.17;;;2.30;;
9080;SDS011;13509;50.760;6.080;2022-09-03T13:20:32;2.80;;;2.20;;
9080;SDS011;13509;50.760;6.080;2022-09-03T13:23:08;2.07;;;1.97;;
9080;SDS011;13509;50.760;6.080;2022-09-03T13:25:40;2.53;;;2.33;;
9080;SDS011;13509;50.760;6.080;2022-09-03T13:28:16;3.73;;;2.07;;
9080;SDS011;13509;50.760;6.080;2022-09-03T13:30:51;4.13;;;2.50;;
9080;SDS011;13509;50.760;6.080;2022-09-03T13:33:22;2.83;;;2.27;;
9080;SDS011;13509;50.760;6.080;2022-09-03T13:35:58;3.33;;;2.13;;
9080;SDS011;13509;50.760;6.080;2022-09-03T13:38:28;3.03;;;2.13;;
9080;SDS011;13509;50.760;6.080;2022-09-03T13:41:05;6.17;;;2.40;;
9080;SDS011;13509;50.760;6.080;2022-09-03T13:43:39;3.10;;;2.20;;
9080;SDS011;13509;50.760;6.080;2022-09-03T13:46:09;3.60;;;2.03;;
9080;SDS011;13509;50.760;6.080;2022-09-03T13:48:40;2.63;;;2.30;;
9080;SDS011;13509;50.760;6.080;2022-09-03T13:51:36;2.37;;;2.10;;
9080;SDS011;13509;50.760;6.080;2022-09-03T13:54:06;2.30;;;2.10;;
9080;SDS011;13509;50.760;6.080;2022-09-03T13:56:46;3.57;;;2.00;;
9080;SDS011;13509;50.760;6.080;2022-09-03T13:59:22;2.50;;;2.30;;
9080;SDS011;13509;50.760;6.080;2022-09-03T14:01:56;2.63;;;2.10;;
9080;SDS011;13509;50.760;6.080;2022-09-03T14:04:27;2.37;;;2.10;;
9080;SDS011;13509;50.760;6.080;2022-09-03T14:06:57;2.50;;;2.30;;
9080;SDS011;13509;50.760;6.080;2022-09-03T14:09:29;3.60;;;2.37;;
9080;SDS011;13509;50.760;6.080;2022-09-03T14:12:01;4.47;;;2.27;;
9080;SDS011;13509;50.760;6.080;2022-09-03T14:14:36;2.63;;;2.40;;
9080;SDS011;13509;50.760;6.080;2022-09-03T14:17:09;5.53;;;2.13;;
9080;SDS011;13509;50.760;6.080;2022-09-03T14:19:42;3.60;;;2.50;;
9080;SDS011;13509;50.760;6.080;2022-09-03T14:22:14;3.53;;;2.40;;
9080;SDS011;13509;50.760;6.080;2022-09-03T14:24:45;8.30;;;3.20;;
9080;SDS011;13509;50.760;6.080;2022-09-03T14:27:22;8.17;;;3.10;;
9080;SDS011;13509;50.760;6.080;2022-09-03T14:29:53;8.97;;;2.87;;
9080;SDS011;13509;50.760;6.080;2022-09-03T14:32:29;3.37;;;2.10;;
9080;SDS011;13509;50.760;6.080;2022-09-03T14:35:07;2.83;;;2.20;;
9080;SDS011;13509;50.760;6.080;2022-09-03T14:37:44;2.57;;;2.27;;
9080;SDS011;13509;50.760;6.080;2022-09-03T14:40:17;4.00;;;2.27;;
9080;SDS011;13509;50.760;6.080;2022-09-03T14:42:50;5.60;;;2.60;;
9080;SDS011;13509;50.760;6.080;2022-09-03T14:45:30;2.53;;;2.23;;
9080;SDS011;13509;50.760;6.080;2022-09-03T14:48:12;5.47;;;2.87;;
9080;SDS011;13509;50.760;6.080;2022-09-03T14:50:51;6.97;;;3.07;;
9080;SDS011;13509;50.760;6.080;2022-09-03T14:56:16;4.17;;;2.83;;
9080;SDS011;13509;50.760;6.080;2022-09-03T15:01:33;4.20;;;2.67;;
9080;SDS011;13509;50.760;6.080;2022-09-03T15:06:56;7.30;;;3.43;;
9080;SDS011;13509;50.760;6.080;2022-09-03T15:09:32;3.57;;;3.20;;
9080;SDS011;13509;50.760;6.080;2022-09-03T15:12:07;5.00;;;3.30;;
9080;SDS011;13509;50.760;6.080;2022-09-03T15:14:38;5.03;;;3.20;;
9080;SDS011;13509;50.760;6.080;2022-09-03T15:17:16;4.57;;;3.10;;
9080;SDS011;13509;50.760;6.080;2022-09-03T15:19:54;4.57;;;2.87;;
9080;SDS011;13509;50.760;6.080;2022-09-03T15:22:35;3.67;;;2.50;;
9080;SDS011;13509;50.760;6.080;2022-09-03T15:25:10;4.60;;;2.70;;
9080;SDS011;13509;50.760;6.080;2022-09-03T15:27:51;4.13;;;2.60;;
9080;SDS011;13509;50.760;6.080;2022-09-03T15:30:22;3.63;;;2.67;;
9080;SDS011;13509;50.760;6.080;2022-09-03T15:32:58;4.93;;;2.70;;
9080;SDS011;13509;50.760;6.080;2022-09-03T15:35:32;3.23;;;2.70;;
9080;SDS011;13509;50.760;6.080;2022-09-03T15:38:04;2.90;;;2.67;;
9080;SDS011;13509;50.760;6.080;2022-09-03T15:40:34;3.90;;;2.90;;